Airfield :
LOGIN :

Register | Disclaimer

   EN    FR    IT 

 










Legend :    VFR   Marginal VFR   IFR   Intensive IFR   Very Intensive IFR
Visi :
Ceiling :
>= 8 km
>= 3000ft
5 to 8 km
1000 to 3000 ft
1500m to 5 km
500 to 1000 ft
800 to 1500m
200 to 500 ft
< 800m
< 200 ft
Symbols :   Thunderstorms  Fog  Heavy snow  Heavy precipitations  Wind > 20 kt
SIGMETs :     Misc.  Thunderstorms  Icing  Turbulence  Mountain Waves  Volcanic Ashes







- Airport Elevation : 1906 ft
- IATA code : INN


LOWI - Innsbruck

CURRENT METAR :
  • 160620Z VRB02KT 9999 SCT007 SCT060 17/14 Q1017 NOSIG

EXPIRED METARs :
  • 160550Z VRB02KT 9999 FEW006 SCT060 16/14 Q1017 NOSIG
  • 160520Z VRB01KT 9999 VCSH FEW006 SCT060 BKN080 15/13 Q1017 NOSIG
  • 160450Z VRB02KT 9999 -DZRA FEW005 SCT060 BKN075 15/13 Q1017 NOSIG
  • 160420Z VRB01KT 9999 FEW005 SCT008 BKN075 15/13 Q1017 TEMPO SHRA
  • 160350Z VRB01KT 9999 FEW005 SCT060 BKN100 14/13 Q1017 TEMPO SHRA

TAF TAF LOWI
Valid from the 16 at 06:00 until the 17 at 06:00 UTC


160515Z 1606/1706 VRB02KT 9999 FEW007 SCT060 BKN100 TX25/1614Z TN14/1703Z
PROB40
TEMPO 1606/1611 27010KT SHRA FEW050TCU BKN070
BECMG 1609/1611 09007KT SCT060TCU SCT080
TEMPO 1613/1619 27015G25KT TSRA SCT050CB BKN060
BECMG 1618/1620 27006KT BKN070
TEMPO 1700/1706 27010G20KT SHRA SCT030TCU BKN050
No reported NOTAMs for that airfield.



MET'MAP, your aeronautical weather chart ! - Copyright ORBIFLY December 2007 - Disclaimer

ORBIFLY MET'MAP TEAM :

Programming & Development : Alexandra Zaïnal
Concept & Development : Baudouin d'Aumeries
Co-Development & Prog : Marc-Olivier Méhu
Technical & hardware support : Manuel Goepfert

Contact : metmap@orbifly.com




SOURCES & CREDITS :

   NOAA